createdAt,value
2022-11-05T00:01:09.951Z,68
2022-11-05T00:31:10.626Z,68
2022-11-05T01:01:10.841Z,66
2022-11-05T01:31:11.157Z,66
2022-11-05T02:01:11.828Z,69
2022-11-05T02:31:12.870Z,69
2022-11-05T03:01:13.279Z,70
2022-11-05T03:31:13.310Z,74
2022-11-05T04:01:13.778Z,79
2022-11-05T04:31:14.418Z,78
2022-11-05T05:01:15.545Z,88
2022-11-05T05:31:16.678Z,92
2022-11-05T06:01:17.146Z,94
2022-11-05T06:31:17.611Z,96
2022-11-05T07:01:17.563Z,96
2022-11-05T07:31:20.384Z,100
2022-11-05T08:01:21.781Z,107
2022-11-05T08:31:25.408Z,112
2022-11-05T09:01:30.240Z,116
2022-11-05T09:31:32.321Z,116
2022-11-05T10:01:33.718Z,123
2022-11-05T10:31:43.920Z,116
2022-11-05T11:01:42.410Z,115
2022-11-05T11:31:44.191Z,114
2022-11-05T12:02:38.811Z,113
2022-11-05T12:32:31.056Z,110
2022-11-05T13:02:27.904Z,113
2022-11-05T13:32:28.583Z,112
2022-11-05T14:02:33.137Z,102
2022-11-05T14:32:31.445Z,105
2022-11-05T15:02:29.855Z,109
2022-11-05T15:32:27.777Z,116
2022-11-05T16:02:22.863Z,117
2022-11-05T16:32:17.890Z,128
2022-11-05T17:02:17.102Z,143
2022-11-05T17:32:14.395Z,135
2022-11-05T18:02:11.901Z,143
2022-11-05T18:32:16.403Z,136
2022-11-05T19:02:17.421Z,143
2022-11-05T20:02:17.431Z,142
2022-11-05T20:32:17.459Z,148
2022-11-05T21:02:16.943Z,147
2022-11-05T21:32:17.525Z,144
2022-11-05T22:02:17.108Z,144
2022-11-05T22:32:17.559Z,145
2022-11-05T23:02:17.567Z,144
2022-11-05T23:32:19.252Z,141
